Terminal Aerodrome Forecast
Issued by NWS

Home | Current Version | Previous Version | Text Only | Print | Product List | Glossary On
Versions: 1 2 3 4 5 6 7 8 9 10 11 12 13 14
452
FTPA31 PHFO 291135
TAFHLI
TAF
PHLI 291135Z 2912/3012 05015KT P6SM VCSH FEW022 BKN040
     FM291900 04015KT P6SM FEW025 SCT045
     FM300500 05013KT P6SM VCSH SCT025 BKN040=

USA.gov is the U.S. government's official web portal to all federal, state and local government web resources and services.